createdAt,value
2022-12-12T00:00:25.652Z,1009.99
2022-12-12T00:01:25.669Z,1010.02
2022-12-12T00:02:25.775Z,1010.02
2022-12-12T00:03:25.841Z,1010.01
2022-12-12T00:04:25.669Z,1010.02
2022-12-12T00:05:25.665Z,1010.05
2022-12-12T00:06:25.667Z,1010.06
2022-12-12T00:07:25.876Z,1010.04
2022-12-12T00:08:25.740Z,1010.03
2022-12-12T00:09:25.672Z,1010.03
2022-12-12T00:10:25.669Z,1009.99
2022-12-12T00:11:25.675Z,1009.95
2022-12-12T00:12:25.677Z,1009.94
2022-12-12T00:13:25.672Z,1010.02
2022-12-12T00:14:25.663Z,1010
2022-12-12T00:15:25.669Z,1009.97
2022-12-12T00:16:25.756Z,1009.97
2022-12-12T00:17:25.683Z,1009.95
2022-12-12T00:18:25.676Z,1010
2022-12-12T00:19:25.658Z,1010
2022-12-12T00:20:25.673Z,1009.98
2022-12-12T00:21:25.662Z,1010
2022-12-12T00:22:25.681Z,1009.87
2022-12-12T00:23:25.667Z,1009.91
2022-12-12T00:24:25.688Z,1009.8
2022-12-12T00:25:25.673Z,1009.83
2022-12-12T00:26:25.669Z,1009.77
2022-12-12T00:27:25.697Z,1009.74
2022-12-12T00:28:25.647Z,1009.73
2022-12-12T00:29:25.654Z,1009.67
2022-12-12T00:30:25.679Z,1009.76
2022-12-12T00:31:25.654Z,1009.79
2022-12-12T00:32:25.668Z,1009.75
2022-12-12T00:33:25.647Z,1009.84
2022-12-12T00:34:25.653Z,1009.82
2022-12-12T00:35:25.654Z,1009.81
2022-12-12T00:36:25.650Z,1009.84
2022-12-12T00:37:25.673Z,1009.81
2022-12-12T00:38:25.647Z,1009.78
2022-12-12T00:39:25.656Z,1009.85
2022-12-12T00:40:25.645Z,1009.87
2022-12-12T00:41:25.662Z,1009.83
2022-12-12T00:42:25.669Z,1009.84
2022-12-12T00:43:25.648Z,1009.85
2022-12-12T00:44:25.657Z,1009.76
2022-12-12T00:45:25.649Z,1009.76
2022-12-12T00:46:25.720Z,1009.83
2022-12-12T00:47:25.663Z,1009.87
2022-12-12T00:48:25.648Z,1009.81
2022-12-12T00:49:25.659Z,1009.81
2022-12-12T00:50:25.665Z,1009.83
2022-12-12T00:51:25.655Z,1009.8
2022-12-12T00:52:25.686Z,1009.77
2022-12-12T00:53:25.669Z,1009.78
2022-12-12T00:54:25.664Z,1009.86
2022-12-12T00:55:25.665Z,1009.86
2022-12-12T00:56:25.672Z,1009.77
2022-12-12T00:57:25.678Z,1009.78
2022-12-12T00:58:25.673Z,1009.81
2022-12-12T00:59:25.672Z,1009.8
2022-12-12T01:00:25.660Z,1009.8
2022-12-12T01:01:25.735Z,1009.83
2022-12-12T01:02:28.348Z,1009.85
2022-12-12T01:03:25.665Z,1009.87
2022-12-12T01:04:25.663Z,1009.89
2022-12-12T01:05:25.655Z,1009.94
2022-12-12T01:06:25.670Z,1009.95
2022-12-12T01:07:25.710Z,1009.95
2022-12-12T01:08:25.769Z,1009.86
2022-12-12T01:09:25.668Z,1009.86
2022-12-12T01:10:25.669Z,1009.9
2022-12-12T01:11:25.668Z,1009.9
2022-12-12T01:12:25.765Z,1009.85
2022-12-12T01:13:25.663Z,1009.81
2022-12-12T01:14:25.661Z,1009.84
2022-12-12T01:15:25.669Z,1009.83
2022-12-12T01:16:25.751Z,1009.83
2022-12-12T01:17:25.683Z,1009.91
2022-12-12T01:18:25.666Z,1009.88
2022-12-12T01:19:25.669Z,1009.95
2022-12-12T01:20:25.677Z,1009.92
2022-12-12T01:21:25.662Z,1009.93
2022-12-12T01:22:25.680Z,1009.89
2022-12-12T01:23:25.665Z,1009.92
2022-12-12T01:24:25.687Z,1009.9
2022-12-12T01:25:25.671Z,1009.85
2022-12-12T01:26:25.716Z,1009.83
2022-12-12T01:27:25.674Z,1009.83
2022-12-12T01:28:25.663Z,1009.85
2022-12-12T01:29:25.661Z,1009.87
2022-12-12T01:30:25.652Z,1009.88
2022-12-12T01:31:25.729Z,1009.83
2022-12-12T01:32:25.675Z,1009.87
2022-12-12T01:33:25.660Z,1009.82
2022-12-12T01:34:25.668Z,1009.79
2022-12-12T01:35:25.672Z,1009.82
2022-12-12T01:36:25.664Z,1009.85
2022-12-12T01:37:25.683Z,1009.82
2022-12-12T01:38:25.666Z,1009.82
2022-12-12T01:39:25.675Z,1009.84
2022-12-12T01:40:25.649Z,1009.83
2022-12-12T01:41:25.650Z,1009.82
2022-12-12T01:42:25.665Z,1009.82
2022-12-12T01:43:25.677Z,1009.82
2022-12-12T01:44:25.651Z,1009.82
2022-12-12T01:45:25.653Z,1009.82
2022-12-12T01:46:25.703Z,1009.88
2022-12-12T01:47:25.660Z,1009.84
2022-12-12T01:48:25.652Z,1009.88
2022-12-12T01:49:25.648Z,1009.91
2022-12-12T01:50:25.650Z,1009.94
2022-12-12T01:51:25.654Z,1009.89
2022-12-12T01:52:25.660Z,1009.91
2022-12-12T01:53:25.651Z,1009.92
2022-12-12T01:54:25.646Z,1009.95
2022-12-12T01:55:25.651Z,1009.97
2022-12-12T01:56:25.654Z,1009.97
2022-12-12T01:57:25.665Z,1010
2022-12-12T01:58:25.758Z,1010.02
2022-12-12T01:59:25.646Z,1009.97
2022-12-12T02:00:25.711Z,1009.97
2022-12-12T02:01:25.654Z,1009.98
2022-12-12T02:02:25.741Z,1009.96
2022-12-12T02:03:25.660Z,1009.92
2022-12-12T02:04:25.667Z,1009.92
2022-12-12T02:05:25.666Z,1009.9
2022-12-12T02:06:25.671Z,1009.9
2022-12-12T02:07:25.679Z,1009.87
2022-12-12T02:08:25.725Z,1009.84
2022-12-12T02:09:25.666Z,1009.84
2022-12-12T02:10:25.672Z,1009.8
2022-12-12T02:11:25.665Z,1009.84
2022-12-12T02:12:25.676Z,1009.81
2022-12-12T02:13:25.693Z,1009.86
2022-12-12T02:14:25.675Z,1009.81
2022-12-12T02:15:25.670Z,1009.86
2022-12-12T02:16:25.739Z,1009.85
2022-12-12T02:17:25.684Z,1009.8
2022-12-12T02:18:25.665Z,1009.84
2022-12-12T02:19:25.666Z,1009.9
2022-12-12T02:20:25.672Z,1009.85
2022-12-12T02:21:25.749Z,1009.81
2022-12-12T02:22:25.676Z,1009.76
2022-12-12T02:23:25.671Z,1009.75
2022-12-12T02:24:26.061Z,1009.76
2022-12-12T02:25:25.674Z,1009.78
2022-12-12T02:26:25.662Z,1009.75
2022-12-12T02:27:25.683Z,1009.78
2022-12-12T02:28:25.662Z,1009.8
2022-12-12T02:29:25.667Z,1009.79
2022-12-12T02:30:25.653Z,1009.75
2022-12-12T02:31:25.681Z,1009.76
2022-12-12T02:32:25.691Z,1009.79
2022-12-12T02:33:25.668Z,1009.82
2022-12-12T02:34:25.668Z,1009.79
2022-12-12T02:35:25.676Z,1009.8
2022-12-12T02:36:25.653Z,1009.81
2022-12-12T02:37:25.685Z,1009.78
2022-12-12T02:38:25.657Z,1009.8
2022-12-12T02:39:25.661Z,1009.82
2022-12-12T02:40:25.655Z,1009.83
2022-12-12T02:41:25.764Z,1009.78
2022-12-12T02:42:25.677Z,1009.73
2022-12-12T02:43:25.660Z,1009.79
2022-12-12T02:44:25.812Z,1009.76
2022-12-12T02:45:25.662Z,1009.75
2022-12-12T02:46:25.753Z,1009.78
2022-12-12T02:47:25.675Z,1009.76
2022-12-12T02:48:25.665Z,1009.78
2022-12-12T02:49:25.643Z,1009.76
2022-12-12T02:50:25.696Z,1009.78
2022-12-12T02:51:25.646Z,1009.79
2022-12-12T02:52:25.657Z,1009.76
2022-12-12T02:53:25.648Z,1009.8
2022-12-12T02:54:25.641Z,1009.71
2022-12-12T02:55:25.652Z,1009.72
2022-12-12T02:56:25.641Z,1009.77
2022-12-12T02:57:25.661Z,1009.78
2022-12-12T02:58:25.648Z,1009.7
2022-12-12T02:59:25.646Z,1009.75
2022-12-12T03:00:25.651Z,1009.77
2022-12-12T03:01:25.657Z,1009.77
2022-12-12T03:02:25.713Z,1009.69
2022-12-12T03:03:25.651Z,1009.79
2022-12-12T03:04:25.645Z,1009.73
2022-12-12T03:05:25.648Z,1009.79
2022-12-12T03:06:25.649Z,1009.77
2022-12-12T03:07:25.766Z,1009.76
2022-12-12T03:08:25.667Z,1009.76
2022-12-12T03:09:25.640Z,1009.76
2022-12-12T03:10:25.665Z,1009.76
2022-12-12T03:11:25.665Z,1009.8
2022-12-12T03:12:25.666Z,1009.8
2022-12-12T03:13:25.653Z,1009.8
2022-12-12T03:14:25.657Z,1009.71
2022-12-12T03:15:25.662Z,1009.8
2022-12-12T03:16:25.733Z,1009.75
2022-12-12T03:17:25.674Z,1009.75
2022-12-12T03:18:25.663Z,1009.76
2022-12-12T03:19:25.665Z,1009.73
2022-12-12T03:20:25.664Z,1009.77
2022-12-12T03:21:25.658Z,1009.75
2022-12-12T03:22:25.683Z,1009.72
2022-12-12T03:23:25.657Z,1009.76
2022-12-12T03:24:25.654Z,1009.79
2022-12-12T03:25:25.660Z,1009.8
2022-12-12T03:26:25.657Z,1009.81
2022-12-12T03:27:25.673Z,1009.83
2022-12-12T03:28:25.661Z,1009.85
2022-12-12T03:29:25.664Z,1009.88
2022-12-12T03:30:25.735Z,1009.84
2022-12-12T03:31:25.712Z,1009.86
2022-12-12T03:32:25.676Z,1009.83
2022-12-12T03:33:25.667Z,1009.88
2022-12-12T03:34:25.655Z,1009.86
2022-12-12T03:35:25.661Z,1009.84
2022-12-12T03:36:25.660Z,1009.83
2022-12-12T03:37:25.675Z,1009.84
2022-12-12T03:38:25.661Z,1009.78
2022-12-12T03:39:25.658Z,1009.85
2022-12-12T03:40:25.664Z,1009.76
2022-12-12T03:41:25.674Z,1009.81
2022-12-12T03:42:25.676Z,1009.8
2022-12-12T03:43:25.662Z,1009.78
2022-12-12T03:44:25.662Z,1009.79
2022-12-12T03:45:25.696Z,1009.85
2022-12-12T03:46:25.662Z,1009.75
2022-12-12T03:47:25.670Z,1009.78
2022-12-12T03:48:25.664Z,1009.8
2022-12-12T03:49:25.659Z,1009.8
2022-12-12T03:50:25.661Z,1009.78
2022-12-12T03:51:25.654Z,1009.75
2022-12-12T03:52:25.667Z,1009.78
2022-12-12T03:53:25.730Z,1009.74
2022-12-12T03:54:25.658Z,1009.74
2022-12-12T03:55:25.662Z,1009.77
2022-12-12T03:56:25.643Z,1009.76
2022-12-12T03:57:25.663Z,1009.75
2022-12-12T03:58:25.643Z,1009.77
2022-12-12T03:59:27.515Z,1009.77
2022-12-12T04:00:25.641Z,1009.78
2022-12-12T04:01:25.707Z,1009.83
2022-12-12T04:02:25.701Z,1009.8
2022-12-12T04:03:25.641Z,1009.78
2022-12-12T04:04:25.646Z,1009.83
2022-12-12T04:05:25.644Z,1009.83
2022-12-12T04:06:25.708Z,1009.78
2022-12-12T04:07:25.668Z,1009.84
2022-12-12T04:08:25.736Z,1009.85
2022-12-12T04:09:25.644Z,1009.85
2022-12-12T04:10:25.647Z,1009.82
2022-12-12T04:11:25.642Z,1009.85
2022-12-12T04:12:25.657Z,1009.85
2022-12-12T04:13:30.381Z,1009.85
2022-12-12T04:14:25.643Z,1009.89
2022-12-12T04:15:25.644Z,1009.87
2022-12-12T04:16:25.676Z,1009.9
2022-12-12T04:17:25.669Z,1009.82
2022-12-12T04:18:25.664Z,1009.86
2022-12-12T04:19:25.657Z,1009.83
2022-12-12T04:20:25.723Z,1009.86
2022-12-12T04:21:25.658Z,1009.87
2022-12-12T04:22:27.408Z,1009.88
2022-12-12T04:23:25.664Z,1009.92
2022-12-12T04:24:25.653Z,1009.88
2022-12-12T04:25:25.662Z,1009.84
2022-12-12T04:26:25.657Z,1009.9
2022-12-12T04:27:25.679Z,1009.9
2022-12-12T04:28:25.657Z,1009.88
2022-12-12T04:29:25.665Z,1009.82
2022-12-12T04:30:25.646Z,1009.85
2022-12-12T04:31:25.682Z,1009.92
2022-12-12T04:32:25.667Z,1009.86
2022-12-12T04:33:25.664Z,1009.82
2022-12-12T04:34:25.656Z,1009.84
2022-12-12T04:35:51.956Z,1009.86
2022-12-12T04:36:50.874Z,1009.87
2022-12-12T04:37:50.872Z,1009.86
2022-12-12T04:38:50.869Z,1009.88
2022-12-12T04:39:50.859Z,1009.87
2022-12-12T04:40:50.863Z,1009.94
2022-12-12T04:41:50.863Z,1009.93
2022-12-12T04:42:50.873Z,1009.89
2022-12-12T04:43:50.851Z,1009.96
2022-12-12T04:44:50.855Z,1009.94
2022-12-12T04:45:50.927Z,1009.9
2022-12-12T04:46:50.855Z,1009.89
2022-12-12T04:47:50.887Z,1009.92
2022-12-12T04:48:53.424Z,1009.95
2022-12-12T04:49:50.847Z,1009.92
2022-12-12T04:50:50.856Z,1009.97
2022-12-12T04:51:50.857Z,1009.97
2022-12-12T04:52:50.871Z,1009.96
2022-12-12T04:53:50.841Z,1009.89
2022-12-12T04:54:50.861Z,1009.95
2022-12-12T04:55:50.850Z,1009.92
2022-12-12T04:56:50.833Z,1009.92
2022-12-12T04:57:50.866Z,1009.96
2022-12-12T04:58:50.851Z,1009.97
2022-12-12T04:59:50.851Z,1009.91
2022-12-12T05:00:50.894Z,1009.97
2022-12-12T05:01:53.400Z,1009.92
2022-12-12T05:02:50.920Z,1009.94
2022-12-12T05:03:50.855Z,1009.92
2022-12-12T05:04:50.843Z,1009.9
2022-12-12T05:05:50.858Z,1009.89
2022-12-12T05:06:50.837Z,1009.88
2022-12-12T05:07:50.894Z,1009.86
2022-12-12T05:08:50.845Z,1009.86
2022-12-12T05:09:50.838Z,1009.86
2022-12-12T05:10:50.833Z,1009.9
2022-12-12T05:11:50.835Z,1009.89
2022-12-12T05:12:50.839Z,1009.84
2022-12-12T05:13:50.836Z,1009.95
2022-12-12T05:14:50.826Z,1009.89
2022-12-12T05:15:50.826Z,1009.94
2022-12-12T05:16:50.896Z,1009.9
2022-12-12T05:17:50.849Z,1009.91
2022-12-12T05:18:50.833Z,1009.9
2022-12-12T05:19:50.828Z,1009.93
2022-12-12T05:20:50.830Z,1009.97
2022-12-12T05:21:50.830Z,1009.92
2022-12-12T05:22:50.844Z,1009.98
2022-12-12T05:23:50.823Z,1010
2022-12-12T05:24:50.824Z,1009.98
2022-12-12T05:25:50.826Z,1009.96
2022-12-12T05:26:50.832Z,1010.01
2022-12-12T05:27:50.843Z,1009.94
2022-12-12T05:28:50.827Z,1009.98
2022-12-12T05:29:50.823Z,1009.97
2022-12-12T05:30:50.862Z,1009.93
2022-12-12T05:31:50.831Z,1009.93
2022-12-12T05:32:50.845Z,1010
2022-12-12T05:33:50.828Z,1009.96
2022-12-12T05:34:50.829Z,1009.99
2022-12-12T05:35:50.824Z,1009.92
2022-12-12T05:36:50.825Z,1010.01
2022-12-12T05:37:52.068Z,1009.99
2022-12-12T05:38:50.842Z,1009.97
2022-12-12T05:39:50.837Z,1009.98
2022-12-12T05:40:50.828Z,1009.98
2022-12-12T05:41:50.849Z,1009.99
2022-12-12T05:42:50.849Z,1009.97
2022-12-12T05:43:50.851Z,1009.99
2022-12-12T05:44:50.854Z,1009.99
2022-12-12T05:45:50.937Z,1009.99
2022-12-12T05:46:50.828Z,1009.98
2022-12-12T05:47:50.860Z,1009.96
2022-12-12T05:48:50.960Z,1010
2022-12-12T05:49:50.845Z,1009.97
2022-12-12T05:50:50.828Z,1009.96
2022-12-12T05:51:50.849Z,1010.03
2022-12-12T05:52:50.862Z,1010
2022-12-12T05:53:50.847Z,1010.03
2022-12-12T05:54:50.848Z,1010.05
2022-12-12T05:55:50.839Z,1010.03
2022-12-12T05:56:50.854Z,1010.04
2022-12-12T05:57:50.861Z,1010.05
2022-12-12T05:58:50.846Z,1010.1
2022-12-12T05:59:50.857Z,1010.09
2022-12-12T06:00:50.845Z,1010.1
2022-12-12T06:01:50.848Z,1010.06
2022-12-12T06:02:50.860Z,1010.08
2022-12-12T06:03:50.904Z,1010.11
2022-12-12T06:04:50.849Z,1010.09
2022-12-12T06:05:50.849Z,1010.13
2022-12-12T06:06:50.846Z,1010.12
2022-12-12T06:07:50.924Z,1010.13
2022-12-12T06:08:50.853Z,1010.13
2022-12-12T06:09:50.849Z,1010.18
2022-12-12T06:10:50.843Z,1010.18
2022-12-12T06:11:50.840Z,1010.18
2022-12-12T06:12:50.857Z,1010.18
2022-12-12T06:13:50.824Z,1010.13
2022-12-12T06:14:50.840Z,1010.17
2022-12-12T06:15:50.905Z,1010.16
2022-12-12T06:16:50.846Z,1010.13
2022-12-12T06:17:50.861Z,1010.15
2022-12-12T06:18:50.847Z,1010.16
2022-12-12T06:19:50.847Z,1010.12
2022-12-12T06:20:50.855Z,1010.09
2022-12-12T06:21:50.854Z,1010.15
2022-12-12T06:22:53.782Z,1010.09
2022-12-12T06:23:50.847Z,1010.14
2022-12-12T06:24:50.837Z,1010.17
2022-12-12T06:25:50.843Z,1010.17
2022-12-12T06:26:50.943Z,1010.16
2022-12-12T06:27:50.863Z,1010.19
2022-12-12T06:28:50.826Z,1010.1
2022-12-12T06:29:50.844Z,1010.12
2022-12-12T06:30:50.873Z,1010.12
2022-12-12T06:31:50.851Z,1010.15
2022-12-12T06:32:50.865Z,1010.15
2022-12-12T06:33:50.848Z,1010.18
2022-12-12T06:34:50.834Z,1010.18
2022-12-12T06:35:50.843Z,1010.15
2022-12-12T06:36:50.827Z,1010.17
2022-12-12T06:37:50.841Z,1010.21
2022-12-12T06:38:50.836Z,1010.21
2022-12-12T06:39:50.840Z,1010.18
2022-12-12T06:40:50.826Z,1010.22
2022-12-12T06:41:50.824Z,1010.27
2022-12-12T06:42:50.838Z,1010.24
2022-12-12T06:43:50.824Z,1010.27
2022-12-12T06:44:50.825Z,1010.3
2022-12-12T06:45:50.828Z,1010.32
2022-12-12T06:46:50.826Z,1010.31
2022-12-12T06:47:50.840Z,1010.32
2022-12-12T06:48:50.829Z,1010.32
2022-12-12T06:49:50.825Z,1010.33
2022-12-12T06:50:50.824Z,1010.35
2022-12-12T06:51:50.821Z,1010.36
2022-12-12T06:52:50.843Z,1010.33
2022-12-12T06:53:50.864Z,1010.38
2022-12-12T06:54:50.823Z,1010.38
2022-12-12T06:55:50.820Z,1010.39
2022-12-12T06:56:50.821Z,1010.42
2022-12-12T06:57:50.843Z,1010.36
2022-12-12T06:58:50.825Z,1010.34
2022-12-12T06:59:50.823Z,1010.39
2022-12-12T07:00:50.852Z,1010.43
2022-12-12T07:01:50.917Z,1010.4
2022-12-12T07:02:50.865Z,1010.41
2022-12-12T07:03:50.857Z,1010.43
2022-12-12T07:04:50.840Z,1010.38
2022-12-12T07:05:50.843Z,1010.43
2022-12-12T07:06:50.829Z,1010.45
2022-12-12T07:07:50.920Z,1010.47
2022-12-12T07:08:50.841Z,1010.47
2022-12-12T07:09:50.834Z,1010.44
2022-12-12T07:10:50.846Z,1010.47
2022-12-12T07:11:50.846Z,1010.44
2022-12-12T07:12:55.989Z,1010.4
2022-12-12T07:13:50.842Z,1010.47
2022-12-12T07:14:50.848Z,1010.45
2022-12-12T07:15:50.907Z,1010.43
2022-12-12T07:16:50.852Z,1010.47
2022-12-12T07:17:50.851Z,1010.44
2022-12-12T07:18:50.843Z,1010.5
2022-12-12T07:19:50.841Z,1010.44
2022-12-12T07:20:50.842Z,1010.43
2022-12-12T07:21:50.909Z,1010.48
2022-12-12T07:22:50.859Z,1010.46
2022-12-12T07:23:50.853Z,1010.47
2022-12-12T07:24:50.848Z,1010.45
2022-12-12T07:25:50.845Z,1010.46
2022-12-12T07:26:50.847Z,1010.4
2022-12-12T07:27:50.855Z,1010.46
2022-12-12T07:28:50.853Z,1010.44
2022-12-12T07:29:50.853Z,1010.47
2022-12-12T07:30:50.881Z,1010.47
2022-12-12T07:31:50.839Z,1010.51
2022-12-12T07:32:50.863Z,1010.57
2022-12-12T07:33:50.823Z,1010.57
2022-12-12T07:34:50.842Z,1010.55
2022-12-12T07:35:50.849Z,1010.58
2022-12-12T07:36:50.841Z,1010.61
2022-12-12T07:37:50.841Z,1010.62
2022-12-12T07:38:50.851Z,1010.61
2022-12-12T07:39:50.844Z,1010.63
2022-12-12T07:40:50.849Z,1010.65
2022-12-12T07:41:50.853Z,1010.62
2022-12-12T07:42:50.860Z,1010.59
2022-12-12T07:43:50.904Z,1010.6
2022-12-12T07:44:50.841Z,1010.55
2022-12-12T07:45:50.842Z,1010.6
2022-12-12T07:46:50.865Z,1010.56
2022-12-12T07:47:50.848Z,1010.56
2022-12-12T07:48:50.847Z,1010.55
2022-12-12T07:49:50.834Z,1010.52
2022-12-12T07:50:50.824Z,1010.56
2022-12-12T07:51:50.827Z,1010.57
2022-12-12T07:52:50.846Z,1010.58
2022-12-12T07:53:50.826Z,1010.52
2022-12-12T07:54:50.829Z,1010.68
2022-12-12T07:55:50.827Z,1010.62
2022-12-12T07:56:50.826Z,1010.63
2022-12-12T07:57:50.845Z,1010.66
2022-12-12T07:58:50.826Z,1010.63
2022-12-12T07:59:50.829Z,1010.62
2022-12-12T08:00:50.831Z,1010.64
2022-12-12T08:01:50.851Z,1010.7
2022-12-12T08:02:50.839Z,1010.65
2022-12-12T08:03:50.822Z,1010.67
2022-12-12T08:04:50.928Z,1010.67
2022-12-12T08:05:50.826Z,1010.66
2022-12-12T08:06:57.607Z,1010.65
2022-12-12T08:07:50.903Z,1010.62
2022-12-12T08:08:50.844Z,1010.62
2022-12-12T08:09:50.826Z,1010.62
2022-12-12T08:10:50.888Z,1010.63
2022-12-12T08:11:50.822Z,1010.65
2022-12-12T08:12:50.843Z,1010.63
2022-12-12T08:13:50.857Z,1010.68
2022-12-12T08:14:50.843Z,1010.74
2022-12-12T08:15:50.897Z,1010.77
2022-12-12T08:16:50.894Z,1010.8
2022-12-12T08:17:50.840Z,1010.81
2022-12-12T08:18:50.843Z,1010.84
2022-12-12T08:19:50.835Z,1010.89
2022-12-12T08:20:50.845Z,1010.94
2022-12-12T08:21:50.844Z,1010.91
2022-12-12T08:22:50.861Z,1010.91
2022-12-12T08:23:50.845Z,1010.94
2022-12-12T08:24:50.840Z,1010.97
2022-12-12T08:25:50.836Z,1010.97
2022-12-12T08:26:50.836Z,1010.99
2022-12-12T08:27:50.855Z,1011.01
2022-12-12T08:28:50.841Z,1010.99
2022-12-12T08:29:50.835Z,1011.05
2022-12-12T08:30:50.850Z,1011.07
2022-12-12T08:31:50.847Z,1011.03
2022-12-12T08:32:50.871Z,1011.06
2022-12-12T08:33:50.865Z,1011.03
2022-12-12T08:34:50.868Z,1011.06
2022-12-12T08:35:50.853Z,1011.06
2022-12-12T08:36:50.845Z,1011.01
2022-12-12T08:37:50.859Z,1010.98
2022-12-12T08:38:50.838Z,1011.03
2022-12-12T08:39:55.460Z,1011.07
2022-12-12T08:40:50.829Z,1011.07
2022-12-12T08:41:50.840Z,1011.11
2022-12-12T08:42:50.854Z,1011.07
2022-12-12T08:43:50.841Z,1011.12
2022-12-12T08:44:50.829Z,1011.14
2022-12-12T08:45:50.845Z,1011.1
2022-12-12T08:46:50.892Z,1011.11
2022-12-12T08:47:50.935Z,1011.16
2022-12-12T08:48:50.846Z,1011.13
2022-12-12T08:49:50.845Z,1011.12
2022-12-12T08:50:50.845Z,1011.16
2022-12-12T08:51:50.836Z,1011.12
2022-12-12T08:52:50.860Z,1011.15
2022-12-12T08:53:50.841Z,1011.17
2022-12-12T08:54:50.841Z,1011.17
2022-12-12T08:55:50.837Z,1011.21
2022-12-12T08:56:50.825Z,1011.17
2022-12-12T08:57:50.861Z,1011.17
2022-12-12T08:58:50.837Z,1011.14
2022-12-12T08:59:50.840Z,1011.14
2022-12-12T09:00:50.840Z,1011.13
2022-12-12T09:01:50.976Z,1011.22
2022-12-12T09:02:50.946Z,1011.16
2022-12-12T09:03:50.839Z,1011.16
2022-12-12T09:04:50.827Z,1011.22
2022-12-12T09:05:50.826Z,1011.24
2022-12-12T09:06:50.829Z,1011.24
2022-12-12T09:07:50.937Z,1011.26
2022-12-12T09:08:50.823Z,1011.25
2022-12-12T09:09:50.825Z,1011.25
2022-12-12T09:10:50.838Z,1011.22
2022-12-12T09:11:50.822Z,1011.3
2022-12-12T09:12:50.842Z,1011.29
2022-12-12T09:13:50.829Z,1011.3
2022-12-12T09:14:50.828Z,1011.31
2022-12-12T09:15:50.874Z,1011.31
2022-12-12T09:16:50.825Z,1011.33
2022-12-12T09:17:50.844Z,1011.28
2022-12-12T09:18:50.825Z,1011.3
2022-12-12T09:19:50.826Z,1011.38
2022-12-12T09:20:50.826Z,1011.38
2022-12-12T09:21:50.821Z,1011.32
2022-12-12T09:22:50.837Z,1011.36
2022-12-12T09:23:50.823Z,1011.39
2022-12-12T09:24:50.821Z,1011.4
2022-12-12T09:25:50.826Z,1011.39
2022-12-12T09:26:50.825Z,1011.41
2022-12-12T09:27:50.843Z,1011.45
2022-12-12T09:28:50.845Z,1011.48
2022-12-12T09:29:50.847Z,1011.46
2022-12-12T09:30:50.848Z,1011.48
2022-12-12T09:31:50.916Z,1011.5
2022-12-12T09:32:50.853Z,1011.48
2022-12-12T09:33:50.833Z,1011.5
2022-12-12T09:34:50.848Z,1011.54
2022-12-12T09:35:50.839Z,1011.53
2022-12-12T09:36:50.843Z,1011.48
2022-12-12T09:37:50.872Z,1011.52
2022-12-12T09:38:50.843Z,1011.5
2022-12-12T09:39:50.833Z,1011.54
2022-12-12T09:40:50.856Z,1011.53
2022-12-12T09:41:50.841Z,1011.48
2022-12-12T09:42:50.863Z,1011.49
2022-12-12T09:43:50.850Z,1011.52
2022-12-12T09:44:50.846Z,1011.46
2022-12-12T09:45:50.896Z,1011.51
2022-12-12T09:46:50.844Z,1011.47
2022-12-12T09:47:50.884Z,1011.49
2022-12-12T09:48:50.841Z,1011.51
2022-12-12T09:49:50.841Z,1011.48
2022-12-12T09:50:50.849Z,1011.48
2022-12-12T09:51:50.832Z,1011.48
2022-12-12T09:52:50.860Z,1011.43
2022-12-12T09:53:50.843Z,1011.47
2022-12-12T09:54:50.846Z,1011.47
2022-12-12T09:55:50.835Z,1011.47
2022-12-12T09:56:50.850Z,1011.49
2022-12-12T09:57:50.857Z,1011.49
2022-12-12T09:58:55.373Z,1011.46
2022-12-12T09:59:50.845Z,1011.55
2022-12-12T10:00:50.889Z,1011.52
2022-12-12T10:01:50.849Z,1011.5
2022-12-12T10:02:50.865Z,1011.5
2022-12-12T10:03:50.841Z,1011.53
2022-12-12T10:04:51.206Z,1011.46
2022-12-12T10:06:01.940Z,1011.53
2022-12-12T10:06:50.832Z,1011.5
2022-12-12T10:07:50.913Z,1011.53
2022-12-12T10:08:50.846Z,1011.53
2022-12-12T10:09:50.843Z,1011.6
2022-12-12T10:10:50.836Z,1011.55
2022-12-12T10:11:50.888Z,1011.54
2022-12-12T10:12:50.859Z,1011.53
2022-12-12T10:13:50.838Z,1011.53
2022-12-12T10:14:50.829Z,1011.57
2022-12-12T10:15:50.822Z,1011.56
2022-12-12T10:16:57.292Z,1011.62
2022-12-12T10:17:50.839Z,1011.61
2022-12-12T10:18:50.824Z,1011.56
2022-12-12T10:19:50.820Z,1011.5
2022-12-12T10:20:50.821Z,1011.59
2022-12-12T10:21:50.826Z,1011.58
2022-12-12T10:22:50.843Z,1011.52
2022-12-12T10:23:50.828Z,1011.57
2022-12-12T10:24:50.826Z,1011.56
2022-12-12T10:25:50.827Z,1011.61
2022-12-12T10:26:50.827Z,1011.68
2022-12-12T10:27:50.842Z,1011.63
2022-12-12T10:28:50.830Z,1011.63
2022-12-12T10:29:51.015Z,1011.69
2022-12-12T10:30:50.826Z,1011.64
2022-12-12T10:31:50.879Z,1011.68
2022-12-12T10:32:50.841Z,1011.72
2022-12-12T10:33:50.826Z,1011.71
2022-12-12T10:34:50.825Z,1011.67
2022-12-12T10:35:50.844Z,1011.68
2022-12-12T10:36:50.828Z,1011.67
2022-12-12T10:37:50.842Z,1011.69
2022-12-12T10:38:50.826Z,1011.63
2022-12-12T10:39:50.829Z,1011.67
2022-12-12T10:40:50.838Z,1011.67
2022-12-12T10:41:50.821Z,1011.66
2022-12-12T10:42:50.836Z,1011.69
2022-12-12T10:43:50.832Z,1011.69
2022-12-12T10:44:50.841Z,1011.7
2022-12-12T10:45:50.865Z,1011.71
2022-12-12T10:46:50.891Z,1011.69
2022-12-12T10:47:50.861Z,1011.73
2022-12-12T10:48:50.842Z,1011.73
2022-12-12T10:49:50.839Z,1011.73
2022-12-12T10:50:50.842Z,1011.73
2022-12-12T10:51:50.838Z,1011.76
2022-12-12T10:52:50.857Z,1011.7
2022-12-12T10:53:50.843Z,1011.75
2022-12-12T10:54:50.846Z,1011.76
2022-12-12T10:55:50.839Z,1011.76
2022-12-12T10:56:50.848Z,1011.78
2022-12-12T10:57:50.853Z,1011.7
2022-12-12T10:58:50.841Z,1011.8
2022-12-12T10:59:50.864Z,1011.82
2022-12-12T11:00:50.881Z,1011.79
2022-12-12T11:02:09.827Z,1011.8
2022-12-12T11:02:54.316Z,1011.9
2022-12-12T11:03:50.845Z,1011.86
2022-12-12T11:04:50.845Z,1011.83
2022-12-12T11:05:50.860Z,1011.83
2022-12-12T11:06:50.841Z,1011.84
2022-12-12T11:07:50.886Z,1011.84
2022-12-12T11:08:50.886Z,1011.84
2022-12-12T11:09:50.842Z,1011.92
2022-12-12T11:10:50.836Z,1011.83
2022-12-12T11:11:50.843Z,1011.84
2022-12-12T11:12:50.848Z,1011.85
2022-12-12T11:13:50.846Z,1011.83
2022-12-12T11:14:50.831Z,1011.84
2022-12-12T11:15:50.843Z,1011.84
2022-12-12T11:16:50.921Z,1011.86
2022-12-12T11:17:50.868Z,1011.91
2022-12-12T11:18:50.846Z,1011.89
2022-12-12T11:19:50.838Z,1011.86
2022-12-12T11:20:50.838Z,1011.84
2022-12-12T11:21:50.836Z,1011.9
2022-12-12T11:22:50.854Z,1011.86
2022-12-12T11:23:50.838Z,1011.92
2022-12-12T11:24:50.841Z,1011.9
2022-12-12T11:25:50.843Z,1011.87
2022-12-12T11:26:50.842Z,1011.92
2022-12-12T11:27:50.859Z,1011.89
2022-12-12T11:28:50.843Z,1011.76
2022-12-12T11:29:50.862Z,1011.91
2022-12-12T11:30:50.835Z,1011.91
2022-12-12T11:31:50.861Z,1011.87
2022-12-12T11:32:50.838Z,1011.9
2022-12-12T11:33:50.832Z,1011.96
2022-12-12T11:34:50.827Z,1011.86
2022-12-12T11:35:50.829Z,1011.97
2022-12-12T11:36:50.822Z,1011.93
2022-12-12T11:37:50.841Z,1011.92
2022-12-12T11:38:50.857Z,1011.89
2022-12-12T11:39:50.876Z,1011.85
2022-12-12T11:40:50.825Z,1011.85
2022-12-12T11:41:50.828Z,1011.95
2022-12-12T11:42:50.841Z,1011.97
2022-12-12T11:43:50.856Z,1011.98
2022-12-12T11:44:50.826Z,1011.94
2022-12-12T11:45:50.937Z,1012
2022-12-12T11:46:50.826Z,1012.08
2022-12-12T11:47:50.843Z,1012.05
2022-12-12T11:48:50.828Z,1012.02
2022-12-12T11:49:50.868Z,1012.07
2022-12-12T11:50:50.838Z,1012.06
2022-12-12T11:51:50.821Z,1012.02
2022-12-12T11:52:50.836Z,1012.07
2022-12-12T11:53:50.828Z,1012.08
2022-12-12T11:54:50.825Z,1012.11
2022-12-12T11:55:50.958Z,1012.11
2022-12-12T11:56:50.838Z,1012.08
2022-12-12T11:57:50.849Z,1012.1
2022-12-12T11:58:50.849Z,1012.15
2022-12-12T11:59:50.915Z,1012.08
2022-12-12T12:00:50.844Z,1012.13
2022-12-12T12:01:50.844Z,1012.13
2022-12-12T12:02:50.904Z,1012.11
2022-12-12T12:03:50.843Z,1012.11
2022-12-12T12:04:53.315Z,1012.08
2022-12-12T12:05:50.841Z,1012.07
2022-12-12T12:06:50.837Z,1012.07
2022-12-12T12:07:50.926Z,1012.07
2022-12-12T12:08:50.838Z,1012.07